Time;durP1;ratioP1;P1;durP2;ratioP2;P2;SDS_P1;SDS_P2;PMS_P1;PMS_P2;Temp;Humidity;BMP_temperature;BMP_pressure;BME280_temperature;BME280_humidity;BME280_pressure;Samples;Min_cycle;Max_cycle;Signal;HPM_P1;HPM_P2
2021/10/16 00:01:53;;;;;;;22.15;15.43;;;6.50;99.90;;;;;;2618777;54;20021;-67
2021/10/16 00:04:19;;;;;;;22.35;14.48;;;6.50;99.90;;;;;;2618887;54;20506;-70
2021/10/16 00:06:45;;;;;;;23.50;16.85;;;6.30;99.90;;;;;;2618737;54;20053;-71
2021/10/16 00:09:12;;;;;;;21.33;14.88;;;6.40;99.90;;;;;;2618547;54;20022;-71
2021/10/16 00:11:38;;;;;;;19.10;13.13;;;6.40;99.90;;;;;;2618691;54;20171;-70
2021/10/16 00:14:07;;;;;;;18.20;14.18;;;6.30;99.90;;;;;;2618597;54;20023;-70
2021/10/16 00:16:33;;;;;;;14.63;11.70;;;6.30;99.90;;;;;;2618572;54;20102;-71
2021/10/16 00:18:59;;;;;;;14.48;12.10;;;6.10;99.90;;;;;;2618738;54;20011;-70
2021/10/16 00:21:25;;;;;;;15.80;12.50;;;6.00;99.90;;;;;;2618110;46;20019;-70
2021/10/16 00:23:51;;;;;;;14.15;11.35;;;6.10;99.90;;;;;;2618814;54;20054;-70
2021/10/16 00:26:17;;;;;;;13.77;10.80;;;6.20;99.90;;;;;;2618654;54;20045;-67
2021/10/16 00:28:43;;;;;;;15.50;12.57;;;6.20;99.90;;;;;;2619038;39;20430;-72
2021/10/16 00:31:12;;;;;;;16.35;12.30;;;6.20;99.90;;;;;;2618616;54;20017;-67
2021/10/16 00:33:38;;;;;;;14.95;12.40;;;6.10;99.90;;;;;;2618692;54;20533;-70
2021/10/16 00:36:04;;;;;;;13.98;11.73;;;6.00;99.90;;;;;;2618635;54;20071;-71
2021/10/16 00:38:30;;;;;;;17.38;12.85;;;6.00;99.90;;;;;;2618443;54;20026;-69
2021/10/16 00:40:56;;;;;;;15.90;13.40;;;6.10;99.90;;;;;;2618692;54;20022;-71
2021/10/16 00:43:22;;;;;;;20.40;14.18;;;6.10;99.90;;;;;;2618569;54;20022;-68
2021/10/16 00:45:48;;;;;;;17.25;13.57;;;6.00;99.90;;;;;;2618745;54;20014;-70
2021/10/16 00:48:17;;;;;;;18.17;13.55;;;6.10;99.90;;;;;;2618565;54;20525;-70
2021/10/16 00:50:43;;;;;;;14.65;11.90;;;5.80;99.90;;;;;;2618365;54;20015;-66
2021/10/16 00:53:10;;;;;;;16.30;12.20;;;6.00;99.90;;;;;;2618572;54;20015;-69
2021/10/16 00:55:36;;;;;;;14.23;11.77;;;5.90;99.90;;;;;;2618176;47;20030;-69
2021/10/16 00:58:02;;;;;;;15.07;11.70;;;5.90;99.90;;;;;;2618646;54;20517;-70
2021/10/16 01:00:29;;;;;;;13.25;10.82;;;5.80;99.90;;;;;;2618150;54;20026;-69
2021/10/16 01:02:56;;;;;;;21.85;13.15;;;5.70;99.90;;;;;;2619073;39;20417;-72
2021/10/16 01:05:25;;;;;;;16.00;12.77;;;5.80;99.90;;;;;;2618515;54;20019;-66
2021/10/16 01:07:51;;;;;;;22.05;12.68;;;5.90;99.90;;;;;;2618781;54;20045;-71
2021/10/16 01:10:17;;;;;;;18.50;13.20;;;5.80;99.90;;;;;;2618648;54;20014;-66
2021/10/16 01:12:44;;;;;;;17.30;12.27;;;5.80;99.90;;;;;;2618441;54;20045;-70
2021/10/16 01:15:12;;;;;;;15.98;13.50;;;5.70;99.90;;;;;;2618583;54;20078;-70
2021/10/16 01:17:40;;;;;;;16.95;13.38;;;5.70;99.90;;;;;;2618756;39;20414;-70
2021/10/16 01:20:08;;;;;;;15.65;12.70;;;5.90;99.90;;;;;;2618436;54;20038;-66
2021/10/16 01:22:39;;;;;;;17.83;12.57;;;5.80;99.90;;;;;;2617331;54;20066;-67
2021/10/16 01:25:08;;;;;;;15.68;12.50;;;5.90;99.90;;;;;;2617862;47;20030;-71
2021/10/16 01:27:36;;;;;;;15.15;11.55;;;5.90;99.90;;;;;;2617880;47;20023;-71
2021/10/16 01:30:02;;;;;;;16.38;11.55;;;5.80;99.90;;;;;;2618932;39;20463;-71
2021/10/16 01:32:29;;;;;;;19.83;12.35;;;5.90;99.90;;;;;;2618063;54;20030;-72
2021/10/16 01:34:55;;;;;;;17.83;11.57;;;6.00;99.90;;;;;;2618291;54;20014;-69
2021/10/16 01:37:21;;;;;;;20.33;11.65;;;6.00;99.90;;;;;;2618536;54;20039;-71
2021/10/16 01:39:49;;;;;;;21.40;13.85;;;6.50;99.90;;;;;;2618656;39;20486;-75
2021/10/16 01:42:16;;;;;;;18.92;12.88;;;6.40;99.90;;;;;;2618260;54;20502;-72
2021/10/16 01:44:42;;;;;;;19.63;14.20;;;6.40;99.90;;;;;;2619258;31;20485;-71
2021/10/16 01:47:08;;;;;;;18.65;13.88;;;5.80;99.90;;;;;;2618320;54;20015;-70
2021/10/16 01:49:35;;;;;;;17.85;13.38;;;5.50;99.90;;;;;;2618433;54;20011;-71
2021/10/16 01:52:01;;;;;;;17.98;13.13;;;5.60;99.90;;;;;;2618091;54;20038;-67
2021/10/16 01:54:27;;;;;;;18.70;13.63;;;5.70;99.90;;;;;;2618452;54;20023;-72
2021/10/16 01:56:56;;;;;;;17.63;13.30;;;5.70;99.90;;;;;;2617650;47;20029;-69
2021/10/16 01:59:23;;;;;;;18.77;12.90;;;5.60;99.90;;;;;;2618369;54;20022;-73
2021/10/16 02:01:50;;;;;;;19.15;14.40;;;5.70;99.90;;;;;;2618148;54;20014;-72
2021/10/16 02:04:16;;;;;;;18.52;13.00;;;5.80;99.90;;;;;;2619033;54;20010;-72
2021/10/16 02:06:42;;;;;;;18.42;13.23;;;5.60;99.90;;;;;;2619058;54;20027;-71
2021/10/16 02:09:09;;;;;;;20.25;13.43;;;5.60;99.90;;;;;;2619055;54;20033;-68
2021/10/16 02:11:36;;;;;;;18.00;12.77;;;5.60;99.90;;;;;;2619132;54;20022;-73
2021/10/16 02:14:07;;;;;;;19.52;13.57;;;5.50;99.90;;;;;;2619043;54;20042;-71
2021/10/16 02:16:33;;;;;;;19.73;14.00;;;5.20;99.90;;;;;;2619047;54;20037;-73
2021/10/16 02:19:00;;;;;;;21.63;14.70;;;5.20;99.90;;;;;;2619449;39;20074;-73
2021/10/16 02:21:26;;;;;;;20.55;14.20;;;5.20;99.90;;;;;;2619466;39;20502;-71
2021/10/16 02:23:53;;;;;;;20.10;14.52;;;5.30;99.90;;;;;;2619133;54;20093;-72
2021/10/16 02:26:19;;;;;;;19.48;14.90;;;5.30;99.90;;;;;;2619332;54;20011;-72
2021/10/16 02:28:46;;;;;;;20.65;15.32;;;5.30;99.90;;;;;;2618928;54;20011;-74
2021/10/16 02:31:14;;;;;;;18.20;13.45;;;5.00;99.90;;;;;;2619013;54;20021;-71
2021/10/16 02:33:40;;;;;;;19.27;13.77;;;4.90;99.90;;;;;;2619171;54;20098;-73
2021/10/16 02:36:06;;;;;;;20.73;14.43;;;4.70;99.90;;;;;;2619038;54;20015;-68
2021/10/16 02:38:33;;;;;;;20.58;14.10;;;4.90;99.90;;;;;;2618176;46;20047;-70
2021/10/16 02:40:59;;;;;;;21.77;14.63;;;4.70;99.90;;;;;;2619023;54;20022;-70
2021/10/16 02:43:25;;;;;;;19.58;14.30;;;5.00;99.90;;;;;;2619057;54;20026;-69
2021/10/16 02:45:51;;;;;;;21.30;14.45;;;5.10;99.90;;;;;;2619230;54;20015;-66
2021/10/16 02:48:20;;;;;;;22.38;14.80;;;5.20;99.90;;;;;;2618995;54;20126;-65
2021/10/16 02:50:46;;;;;;;20.30;14.40;;;5.30;99.90;;;;;;2618700;46;20049;-72
2021/10/16 02:53:12;;;;;;;19.73;14.00;;;5.30;99.90;;;;;;2618611;46;20565;-71
2021/10/16 02:55:38;;;;;;;19.85;14.05;;;5.30;99.90;;;;;;2618552;47;20022;-70
2021/10/16 02:58:04;;;;;;;19.83;14.73;;;5.30;99.90;;;;;;2619041;54;20514;-71
2021/10/16 03:00:30;;;;;;;19.90;13.90;;;5.20;99.90;;;;;;2618982;54;20026;-69
2021/10/16 03:02:56;;;;;;;22.90;15.00;;;5.10;99.90;;;;;;2618979;54;20091;-69
2021/10/16 03:05:25;;;;;;;24.23;15.95;;;5.00;99.90;;;;;;2618997;54;20026;-70
2021/10/16 03:07:51;;;;;;;22.45;14.85;;;5.10;99.90;;;;;;2618760;54;20023;-71
2021/10/16 03:10:17;;;;;;;22.10;15.48;;;5.30;99.90;;;;;;2619017;54;20014;-66
2021/10/16 03:12:43;;;;;;;24.10;15.68;;;5.20;99.90;;;;;;2618771;54;20087;-70
2021/10/16 03:15:09;;;;;;;20.02;14.43;;;5.20;99.90;;;;;;2618258;47;20057;-67
2021/10/16 03:17:35;;;;;;;24.20;15.15;;;5.30;99.90;;;;;;2618975;54;20045;-66
2021/10/16 03:20:01;;;;;;;22.30;14.48;;;5.20;99.90;;;;;;2619520;39;20476;-73
2021/10/16 03:22:30;;;;;;;21.90;15.23;;;5.30;99.90;;;;;;2619687;31;20526;-71
2021/10/16 03:24:56;;;;;;;21.15;14.45;;;5.40;99.90;;;;;;2619044;54;20142;-70
2021/10/16 03:27:22;;;;;;;21.05;14.48;;;5.40;99.90;;;;;;2618865;54;20042;-71
2021/10/16 03:29:48;;;;;;;21.65;15.27;;;5.30;99.90;;;;;;2618925;54;20010;-68
2021/10/16 03:32:14;;;;;;;21.33;14.07;;;5.10;99.90;;;;;;2619168;54;20019;-70
2021/10/16 03:34:40;;;;;;;20.77;13.75;;;4.70;99.90;;;;;;2618901;54;20114;-66
2021/10/16 03:37:06;;;;;;;22.58;14.57;;;4.70;99.90;;;;;;2618283;46;20022;-71
2021/10/16 03:39:35;;;;;;;20.52;14.15;;;4.80;99.90;;;;;;2619311;39;20434;-69
2021/10/16 03:42:01;;;;;;;25.33;15.43;;;5.00;99.90;;;;;;2618900;54;20025;-70
2021/10/16 03:44:27;;;;;;;21.85;14.35;;;5.10;99.90;;;;;;2619181;54;20014;-74
2021/10/16 03:46:53;;;;;;;20.60;14.00;;;5.00;99.90;;;;;;2618855;54;20044;-73
2021/10/16 03:49:19;;;;;;;20.70;14.10;;;4.90;99.90;;;;;;2618787;54;20049;-72
2021/10/16 03:51:46;;;;;;;22.08;14.30;;;5.00;99.90;;;;;;2618910;54;20041;-68
2021/10/16 03:54:12;;;;;;;19.98;12.98;;;5.00;99.90;;;;;;2618965;54;20018;-71
2021/10/16 03:56:41;;;;;;;18.35;12.88;;;5.10;99.90;;;;;;2618805;54;20019;-71
2021/10/16 03:59:07;;;;;;;22.17;14.30;;;5.00;99.90;;;;;;2618081;47;20026;-68
2021/10/16 04:01:33;;;;;;;18.85;13.38;;;5.00;99.90;;;;;;2618387;54;20014;-73
2021/10/16 04:03:59;;;;;;;21.42;14.93;;;5.10;99.90;;;;;;2618489;54;20018;-72
2021/10/16 04:06:25;;;;;;;19.70;13.38;;;4.90;99.90;;;;;;2618713;54;20085;-73
2021/10/16 04:08:51;;;;;;;20.40;14.35;;;4.70;99.90;;;;;;2618751;54;20114;-73
2021/10/16 04:11:17;;;;;;;21.48;14.50;;;4.70;99.90;;;;;;2618970;54;20026;-72
2021/10/16 04:13:45;;;;;;;23.20;15.20;;;4.70;99.90;;;;;;2618707;54;20025;-68
2021/10/16 04:16:11;;;;;;;23.20;15.18;;;4.80;99.90;;;;;;2618824;54;20039;-68
2021/10/16 04:18:37;;;;;;;18.77;13.65;;;4.90;99.90;;;;;;2618159;47;20030;-72
2021/10/16 04:21:04;;;;;;;22.17;14.27;;;4.80;99.90;;;;;;2617966;46;20110;-72
2021/10/16 04:23:30;;;;;;;20.70;14.07;;;4.70;99.90;;;;;;2618925;54;20025;-72
2021/10/16 04:25:56;;;;;;;19.80;14.75;;;4.70;99.90;;;;;;2618482;54;20018;-72
2021/10/16 04:28:22;;;;;;;22.33;14.95;;;4.60;99.90;;;;;;2618061;47;20026;-73
2021/10/16 04:30:50;;;;;;;26.17;15.60;;;4.70;99.90;;;;;;2618368;47;20023;-68
2021/10/16 04:33:16;;;;;;;25.17;15.02;;;4.90;99.90;;;;;;2619134;39;20517;-68
2021/10/16 04:35:42;;;;;;;22.05;14.95;;;5.00;99.90;;;;;;2618624;54;20037;-69
2021/10/16 04:38:08;;;;;;;26.05;16.65;;;5.00;99.90;;;;;;2618544;54;20038;-68
2021/10/16 04:40:36;;;;;;;22.08;14.02;;;4.90;99.90;;;;;;2618661;54;20026;-67
2021/10/16 04:43:05;;;;;;;27.80;17.50;;;4.90;99.90;;;;;;2618609;54;20010;-68
2021/10/16 04:45:32;;;;;;;23.02;16.40;;;5.00;99.90;;;;;;2618690;54;20049;-72
2021/10/16 04:48:01;;;;;;;25.85;15.35;;;5.00;99.90;;;;;;2618692;54;20027;-72
2021/10/16 04:50:28;;;;;;;24.42;15.15;;;5.00;99.90;;;;;;2618540;54;20022;-69
2021/10/16 04:52:54;;;;;;;24.67;14.63;;;5.00;99.90;;;;;;2618805;54;20525;-71
2021/10/16 04:55:23;;;;;;;23.35;15.02;;;4.90;99.90;;;;;;2618528;54;20012;-71
2021/10/16 04:57:49;;;;;;;24.88;15.48;;;4.90;99.90;;;;;;2619010;39;20514;-75
2021/10/16 05:00:16;;;;;;;23.38;15.45;;;4.90;99.90;;;;;;2617866;47;20034;-72
2021/10/16 05:02:42;;;;;;;23.33;16.08;;;5.00;99.90;;;;;;2618264;54;20022;-72
2021/10/16 05:05:10;;;;;;;26.27;16.85;;;5.00;99.90;;;;;;2617880;47;20033;-72
2021/10/16 05:07:37;;;;;;;25.58;15.32;;;4.80;99.90;;;;;;2618435;54;20018;-72
2021/10/16 05:10:03;;;;;;;26.77;16.45;;;4.90;99.90;;;;;;2618612;54;20026;-72
2021/10/16 05:12:30;;;;;;;25.85;14.77;;;4.90;99.90;;;;;;2617365;54;20070;-68
2021/10/16 05:14:56;;;;;;;22.20;14.13;;;4.90;99.90;;;;;;2618678;54;20011;-71
2021/10/16 05:17:22;;;;;;;22.17;13.65;;;4.90;99.90;;;;;;2618928;54;20019;-72
2021/10/16 05:19:48;;;;;;;20.05;13.05;;;5.00;99.90;;;;;;2618026;47;20029;-71
2021/10/16 05:22:17;;;;;;;23.10;13.80;;;4.80;99.90;;;;;;2618955;39;20406;-72
2021/10/16 05:24:43;;;;;;;19.88;12.82;;;4.60;99.90;;;;;;2618862;39;20395;-73
2021/10/16 05:27:09;;;;;;;20.02;13.35;;;4.70;99.90;;;;;;2618315;54;20035;-72
2021/10/16 05:29:35;;;;;;;18.42;12.93;;;4.00;99.90;;;;;;2618500;54;20030;-73
2021/10/16 05:32:01;;;;;;;22.58;13.85;;;3.90;99.90;;;;;;2618468;54;20015;-72
2021/10/16 05:34:27;;;;;;;20.33;12.98;;;3.70;99.90;;;;;;2619137;31;20502;-68
2021/10/16 05:36:53;;;;;;;17.80;12.27;;;4.00;99.90;;;;;;2618818;54;20046;-71
2021/10/16 05:39:22;;;;;;;15.85;12.32;;;4.10;99.90;;;;;;2619745;39;20387;-74
2021/10/16 05:41:48;;;;;;;19.33;12.55;;;4.20;99.90;;;;;;2618968;54;20686;-70
2021/10/16 05:44:14;;;;;;;22.45;14.25;;;4.00;99.90;;;;;;2619183;54;20010;-68
2021/10/16 05:46:41;;;;;;;22.33;14.80;;;4.00;99.90;;;;;;2619103;54;20043;-72
2021/10/16 05:49:07;;;;;;;28.83;15.55;;;4.20;99.90;;;;;;2619643;39;20426;-68
2021/10/16 05:51:33;;;;;;;20.33;13.55;;;4.40;99.90;;;;;;2618760;47;20106;-72
2021/10/16 05:53:59;;;;;;;23.60;14.13;;;4.40;99.90;;;;;;2619161;54;20014;-73
2021/10/16 05:56:28;;;;;;;22.63;13.27;;;4.40;99.90;;;;;;2619303;54;20084;-71
2021/10/16 05:58:58;;;;;;;23.15;13.55;;;4.40;99.90;;;;;;2619238;54;20030;-73
2021/10/16 06:01:25;;;;;;;21.20;14.75;;;4.40;99.90;;;;;;2618355;54;20023;-72
2021/10/16 06:03:51;;;;;;;25.63;15.32;;;4.50;99.90;;;;;;2618733;54;20029;-73
2021/10/16 06:06:17;;;;;;;24.42;15.23;;;4.50;99.90;;;;;;2619121;54;20014;-72
2021/10/16 06:08:43;;;;;;;21.38;14.20;;;4.50;99.90;;;;;;2619044;54;20030;-69
2021/10/16 06:11:09;;;;;;;22.27;14.07;;;4.50;99.90;;;;;;2618653;47;20022;-68
2021/10/16 06:13:38;;;;;;;22.60;13.80;;;4.50;99.90;;;;;;2619055;54;20019;-72
2021/10/16 06:16:05;;;;;;;21.60;13.40;;;4.60;99.90;;;;;;2619003;54;20101;-68
2021/10/16 06:18:31;;;;;;;22.13;13.23;;;4.60;99.90;;;;;;2618435;47;20030;-72
2021/10/16 06:20:57;;;;;;;19.58;12.27;;;4.60;99.90;;;;;;2618805;54;20042;-71
2021/10/16 06:23:23;;;;;;;19.95;14.23;;;4.60;99.90;;;;;;2619226;54;20019;-71
2021/10/16 06:25:49;;;;;;;21.95;13.57;;;4.70;99.90;;;;;;2618943;54;20629;-68
2021/10/16 06:28:15;;;;;;;20.40;13.60;;;4.60;99.90;;;;;;2618359;47;20022;-74
2021/10/16 06:30:44;;;;;;;19.45;13.43;;;4.60;99.90;;;;;;2618867;54;20039;-71
2021/10/16 06:33:10;;;;;;;22.98;14.93;;;4.70;99.90;;;;;;2618896;54;20021;-72
2021/10/16 06:35:37;;;;;;;23.00;16.67;;;4.70;99.90;;;;;;2618961;54;20019;-71
2021/10/16 06:38:04;;;;;;;27.92;18.13;;;4.80;99.90;;;;;;2618928;54;20550;-67
2021/10/16 06:40:31;;;;;;;28.27;19.10;;;4.80;99.90;;;;;;2618967;54;20602;-71
2021/10/16 06:42:57;;;;;;;26.73;18.52;;;5.00;99.90;;;;;;2618798;54;20033;-71
2021/10/16 06:45:23;;;;;;;24.92;17.35;;;5.10;99.90;;;;;;2618737;54;20018;-73
2021/10/16 06:47:51;;;;;;;26.30;16.88;;;5.20;99.90;;;;;;2618057;54;20030;-71
2021/10/16 06:50:18;;;;;;;27.17;19.25;;;5.20;99.90;;;;;;2618226;54;20557;-67
2021/10/16 06:52:44;;;;;;;28.17;19.25;;;5.30;99.90;;;;;;2617620;54;20529;-65
2021/10/16 06:55:10;;;;;;;27.75;20.27;;;5.40;99.90;;;;;;2618355;54;20019;-65
2021/10/16 06:57:36;;;;;;;29.98;20.25;;;5.50;99.90;;;;;;2618050;54;20026;-69
2021/10/16 07:00:03;;;;;;;30.38;20.52;;;5.60;99.90;;;;;;2618512;54;20015;-69
2021/10/16 07:02:30;;;;;;;33.75;19.83;;;5.70;99.90;;;;;;2618045;54;20051;-70
2021/10/16 07:04:58;;;;;;;32.15;21.13;;;5.70;99.90;;;;;;2618454;54;20019;-67
2021/10/16 07:07:25;;;;;;;32.28;19.80;;;5.90;99.90;;;;;;2616908;47;20682;-72
2021/10/16 07:09:51;;;;;;;40.70;23.25;;;6.10;99.90;;;;;;2617418;54;20019;-72
2021/10/16 07:12:18;;;;;;;33.10;22.02;;;6.40;99.90;;;;;;2618001;54;20011;-68
2021/10/16 07:14:44;;;;;;;34.85;21.17;;;6.60;99.90;;;;;;2618017;46;20023;-68
2021/10/16 07:17:10;;;;;;;36.05;22.60;;;6.80;99.90;;;;;;2618059;46;20018;-73
2021/10/16 07:19:36;;;;;;;32.97;22.23;;;7.00;99.90;;;;;;2618461;54;20534;-72
2021/10/16 07:22:05;;;;;;;35.20;21.77;;;7.30;99.90;;;;;;2618289;54;20018;-74
2021/10/16 07:24:32;;;;;;;33.05;22.20;;;7.50;99.90;;;;;;2618357;54;20021;-70
2021/10/16 07:26:58;;;;;;;29.75;20.48;;;7.80;99.90;;;;;;2617565;47;20065;-70
2021/10/16 07:29:24;;;;;;;27.88;20.10;;;7.80;99.90;;;;;;2617566;47;20038;-69
2021/10/16 07:31:51;;;;;;;32.33;20.65;;;7.50;99.90;;;;;;2617982;54;20015;-74
2021/10/16 07:34:18;;;;;;;32.75;20.60;;;7.90;99.90;;;;;;2618413;54;20018;-73
2021/10/16 07:36:45;;;;;;;31.58;20.17;;;8.10;99.90;;;;;;2617416;47;20546;-71
2021/10/16 07:39:14;;;;;;;31.73;20.00;;;8.30;99.90;;;;;;2617131;54;20014;-72
2021/10/16 07:41:42;;;;;;;29.88;20.30;;;8.50;99.90;;;;;;2618243;54;20014;-66
2021/10/16 07:44:08;;;;;;;25.27;18.27;;;9.00;99.90;;;;;;2618529;39;20430;-68
2021/10/16 07:46:35;;;;;;;26.90;19.40;;;9.20;99.90;;;;;;2617881;54;20026;-73
2021/10/16 07:49:01;;;;;;;26.60;18.75;;;9.20;99.90;;;;;;2618226;54;20015;-71
2021/10/16 07:51:27;;;;;;;25.00;17.58;;;9.20;99.90;;;;;;2618254;54;20038;-72
2021/10/16 07:53:54;;;;;;;24.83;18.35;;;9.40;99.90;;;;;;2618218;54;20038;-72
2021/10/16 07:56:22;;;;;;;25.48;15.25;;;9.20;99.90;;;;;;2618053;54;20018;-69
2021/10/16 07:58:48;;;;;;;20.70;15.32;;;9.30;99.90;;;;;;2617544;54;20018;-72
2021/10/16 08:01:14;;;;;;;22.65;15.65;;;9.40;99.90;;;;;;2618237;54;20026;-73
2021/10/16 08:03:41;;;;;;;24.15;16.90;;;9.70;99.90;;;;;;2618487;39;20461;-72
2021/10/16 08:06:07;;;;;;;24.48;16.33;;;10.00;99.90;;;;;;2618327;54;20061;-68
2021/10/16 08:08:33;;;;;;;24.95;15.43;;;10.40;99.90;;;;;;2618939;54;20540;-71
2021/10/16 08:10:59;;;;;;;23.15;15.90;;;10.50;99.90;;;;;;2618491;54;20102;-66
2021/10/16 08:13:30;;;;;;;17.95;13.60;;;10.50;99.90;;;;;;2618487;54;20510;-67
2021/10/16 08:15:56;;;;;;;19.65;13.77;;;10.60;99.90;;;;;;2618591;54;20039;-70
2021/10/16 08:18:22;;;;;;;18.95;13.15;;;10.80;99.90;;;;;;2618543;54;20534;-69
2021/10/16 08:20:49;;;;;;;19.23;12.40;;;11.10;99.90;;;;;;2618014;47;20018;-66
2021/10/16 08:23:15;;;;;;;17.88;13.77;;;11.50;99.90;;;;;;2618644;54;20018;-71
2021/10/16 08:25:41;;;;;;;20.23;13.98;;;11.50;99.90;;;;;;2618739;54;20072;-70
2021/10/16 08:28:09;;;;;;;21.83;13.10;;;11.80;99.90;;;;;;2617662;47;20022;-70
2021/10/16 08:30:39;;;;;;;15.73;10.95;;;11.70;99.90;;;;;;2618186;54;20126;-69
2021/10/16 08:33:05;;;;;;;17.52;12.88;;;11.50;99.90;;;;;;2618104;54;20037;-66
2021/10/16 08:35:31;;;;;;;17.48;11.77;;;11.90;99.90;;;;;;2618719;39;20402;-69
2021/10/16 08:37:58;;;;;;;17.33;12.43;;;12.20;99.90;;;;;;2618185;54;20015;-66
2021/10/16 08:40:25;;;;;;;14.65;11.63;;;12.40;99.90;;;;;;2617832;54;20049;-65
2021/10/16 08:42:51;;;;;;;14.48;11.30;;;12.30;99.90;;;;;;2618230;54;20014;-68
2021/10/16 08:45:17;;;;;;;20.65;12.82;;;12.60;99.90;;;;;;2618262;54;20011;-72
2021/10/16 08:47:47;;;;;;;17.60;12.57;;;12.70;99.90;;;;;;2618524;54;20094;-70
2021/10/16 08:50:13;;;;;;;20.13;15.10;;;12.70;99.90;;;;;;2618460;54;20014;-65
2021/10/16 08:52:40;;;;;;;23.70;16.88;;;12.70;99.90;;;;;;2618647;54;20514;-66
2021/10/16 08:55:13;;;;;;;25.20;18.05;;;12.90;99.90;;;;;;2618456;54;20018;-65
2021/10/16 08:57:41;;;;;;;27.85;18.33;;;13.00;99.90;;;;;;2618544;54;20030;-71
2021/10/16 09:00:38;;;;;;;30.95;19.88;;;13.20;99.90;;;;;;2618028;54;20026;-66
2021/10/16 09:03:21;;;;;;;32.88;21.45;;;13.30;99.90;;;;;;2618497;54;20015;-70
2021/10/16 09:06:04;;;;;;;29.98;22.45;;;13.20;99.90;;;;;;2617774;54;20014;-70
2021/10/16 09:08:32;;;;;;;34.72;25.27;;;13.20;99.90;;;;;;2617764;54;20023;-71
2021/10/16 09:11:14;;;;;;;36.92;24.45;;;13.50;99.90;;;;;;2617427;54;20542;-69
2021/10/16 09:13:44;;;;;;;40.78;24.52;;;13.60;99.90;;;;;;2617819;46;20529;-68
2021/10/16 09:16:36;;;;;;;39.25;25.42;;;13.60;99.90;;;;;;2619242;54;20015;-71
2021/10/16 09:19:14;;;;;;;40.00;25.00;;;13.70;99.90;;;;;;2618335;54;20031;-70
2021/10/16 09:21:44;;;;;;;34.30;24.15;;;13.80;99.90;;;;;;2618776;54;20753;-66
2021/10/16 09:24:13;;;;;;;33.20;23.20;;;14.00;99.90;;;;;;2618829;54;20019;-68
2021/10/16 09:26:43;;;;;;;34.65;24.58;;;14.10;99.90;;;;;;2618743;39;20437;-65
2021/10/16 09:29:11;;;;;;;35.13;24.80;;;14.00;99.90;;;;;;2618844;54;20014;-66
2021/10/16 09:31:39;;;;;;;38.38;25.27;;;13.90;99.90;;;;;;2617653;47;20023;-66
2021/10/16 09:34:08;;;;;;;36.38;24.50;;;14.00;99.90;;;;;;2618313;54;20015;-69
2021/10/16 09:36:36;;;;;;;32.47;23.52;;;13.80;99.90;;;;;;2618652;54;20550;-67
2021/10/16 09:39:04;;;;;;;41.67;25.25;;;14.10;99.90;;;;;;2618999;54;20011;-67
2021/10/16 09:41:33;;;;;;;32.55;23.58;;;14.20;99.90;;;;;;2618627;54;20025;-71
2021/10/16 09:44:00;;;;;;;34.78;23.48;;;14.40;99.90;;;;;;2617841;47;20026;-72
2021/10/16 09:46:26;;;;;;;35.22;24.30;;;14.60;99.90;;;;;;2618636;54;20015;-70
2021/10/16 09:48:52;;;;;;;38.22;25.08;;;14.60;99.90;;;;;;2618639;54;20018;-69
2021/10/16 09:51:22;;;;;;;36.00;23.63;;;14.60;99.90;;;;;;2618292;54;20545;-71
2021/10/16 09:53:50;;;;;;;35.80;24.30;;;14.90;99.90;;;;;;2618768;54;20535;-66
2021/10/16 09:56:17;;;;;;;30.92;23.05;;;15.00;99.90;;;;;;2618840;54;20021;-71
2021/10/16 09:58:43;;;;;;;33.75;22.95;;;15.00;99.90;;;;;;2617743;54;20596;-70
2021/10/16 10:01:11;;;;;;;34.10;21.77;;;15.10;99.90;;;;;;2617815;54;20058;-71
2021/10/16 10:03:42;;;;;;;29.55;21.25;;;15.00;99.90;;;;;;2616744;47;20034;-69
2021/10/16 10:06:13;;;;;;;33.40;23.15;;;14.90;99.90;;;;;;2638522;36;20022;-67
2021/10/16 10:08:42;;;;;;;30.60;21.20;;;15.00;99.90;;;;;;2700961;36;20018;-71
2021/10/16 10:11:09;;;;;;;31.25;21.38;;;15.20;99.90;;;;;;2618783;54;20025;-66
2021/10/16 10:13:36;;;;;;;28.13;20.50;;;15.10;99.90;;;;;;2618478;54;20514;-70
2021/10/16 10:16:02;;;;;;;31.55;20.50;;;15.20;99.90;;;;;;2618438;54;20018;-71
2021/10/16 10:21:14;;;;;;;27.83;19.00;;;15.30;99.90;;;;;;2618838;54;20034;-69
2021/10/16 10:23:55;;;;;;;33.65;20.83;;;15.40;99.90;;;;;;2618082;54;20011;-69
2021/10/16 10:26:25;;;;;;;30.77;20.83;;;15.30;99.90;;;;;;2618358;54;20065;-69
2021/10/16 10:28:54;;;;;;;29.70;20.70;;;15.50;99.90;;;;;;2617724;47;20527;-73
2021/10/16 10:31:50;;;;;;;30.33;20.42;;;15.50;99.90;;;;;;2618462;54;20021;-66
2021/10/16 10:34:18;;;;;;;30.08;21.35;;;15.70;99.90;;;;;;2618484;54;20110;-73
2021/10/16 10:36:45;;;;;;;27.98;19.73;;;15.30;99.90;;;;;;2618597;54;20018;-71
2021/10/16 10:39:41;;;;;;;33.00;23.63;;;15.60;99.90;;;;;;2617940;46;20026;-74
2021/10/16 10:42:42;;;;;;;29.48;21.45;;;15.40;99.90;;;;;;2618371;54;20007;-71
2021/10/16 10:45:24;;;;;;;28.58;20.85;;;15.50;99.90;;;;;;2618647;54;20131;-69
2021/10/16 10:48:02;;;;;;;31.85;22.00;;;15.80;99.90;;;;;;2617968;54;20093;-71
2021/10/16 10:50:50;;;;;;;33.72;21.67;;;16.10;99.90;;;;;;2618365;54;20033;-67
2021/10/16 10:53:38;;;;;;;28.17;20.77;;;16.10;99.90;;;;;;2618218;54;20015;-69
2021/10/16 10:56:19;;;;;;;31.50;21.38;;;16.30;99.90;;;;;;2617801;54;20018;-71
2021/10/16 10:59:10;;;;;;;30.50;21.40;;;16.00;99.90;;;;;;2618321;54;20022;-66
2021/10/16 11:02:03;;;;;;;32.15;20.50;;;16.10;99.90;;;;;;2618172;54;20527;-69
2021/10/16 11:04:54;;;;;;;28.38;19.73;;;16.40;99.90;;;;;;2617853;54;20526;-71
2021/10/16 11:07:33;;;;;;;30.88;19.55;;;16.20;99.90;;;;;;2618061;54;20033;-70
2021/10/16 11:10:01;;;;;;;28.42;20.27;;;16.40;99.90;;;;;;2618438;54;20534;-71
2021/10/16 11:12:31;;;;;;;32.60;21.45;;;16.30;99.90;;;;;;2618213;54;20014;-66
2021/10/16 11:14:59;;;;;;;26.55;20.00;;;16.20;99.90;;;;;;2618265;54;20105;-71
2021/10/16 11:17:35;;;;;;;25.15;19.00;;;16.90;99.90;;;;;;2618330;54;20012;-72
2021/10/16 11:20:01;;;;;;;27.75;19.83;;;;;;;;;;2618159;54;20550;-71
2021/10/16 11:22:43;;;;;;;27.55;19.55;;;17.20;99.90;;;;;;2618353;54;20026;-71
2021/10/16 11:25:14;;;;;;;28.35;18.55;;;;;;;;;;2618248;54;20010;-71
2021/10/16 11:27:40;;;;;;;26.48;18.85;;;;;;;;;;2618182;54;20542;-66
2021/10/16 11:30:17;;;;;;;25.10;17.85;;;;;;;;;;2618962;39;20398;-71
2021/10/16 11:32:46;;;;;;;21.67;16.10;;;;;;;;;;2618734;39;20510;-70
2021/10/16 11:35:12;;;;;;;26.77;19.08;;;;;;;;;;2618258;54;20057;-66
2021/10/16 11:37:43;;;;;;;25.80;19.30;;;;;;;;;;2618931;39;20399;-68
2021/10/16 11:40:11;;;;;;;26.48;19.38;;;;;;;;;;2618287;54;20014;-68
2021/10/16 11:42:38;;;;;;;29.05;19.73;;;;;;;;;;2618267;54;20018;-67
2021/10/16 11:45:10;;;;;;;25.85;17.25;;;;;;;;;;2618545;54;20105;-72
2021/10/16 11:47:37;;;;;;;21.55;16.35;;;;;;;;;;2617707;46;20019;-71
2021/10/16 11:50:11;;;;;;;25.60;18.52;;;;;;;;;;2617792;47;20030;-72
2021/10/16 11:52:38;;;;;;;25.50;18.48;;;;;;;;;;2618491;54;20015;-67
2021/10/16 11:55:09;;;;;;;24.40;18.33;;;;;;;;;;2618085;54;20010;-73
2021/10/16 11:57:36;;;;;;;28.92;19.40;;;;;;;;;;2618520;54;20518;-71
2021/10/16 12:00:15;;;;;;;23.17;18.27;;;;;;;;;;2617745;46;20029;-72
2021/10/16 12:02:41;;;;;;;24.63;18.45;;;;;;;;;;2618833;39;20411;-73
2021/10/16 12:05:08;;;;;;;26.75;20.35;;;;;;;;;;2618472;54;20126;-71
2021/10/16 12:07:37;;;;;;;30.73;20.65;;;;;;;;;;2618389;54;20061;-73
2021/10/16 12:10:18;;;;;;;25.67;18.00;;;;;;;;;;2618860;31;20442;-74
2021/10/16 12:12:55;;;;;;;28.27;19.63;;;;;;;;;;2618393;54;19999;-67
2021/10/16 12:15:21;;;;;;;25.10;18.17;;;;;;;;;;2617660;47;20150;-69
2021/10/16 12:17:47;;;;;;;26.10;19.23;;;;;;;;;;2618416;54;20019;-71
2021/10/16 12:20:13;;;;;;;24.38;17.83;;;;;;;;;;2618750;54;20117;-71
2021/10/16 12:22:56;;;;;;;26.42;18.90;;;;;;;;;;2618210;54;20554;-69
2021/10/16 12:25:25;;;;;;;24.97;18.10;;;;;;;;;;2618161;54;20018;-71
2021/10/16 12:28:09;;;;;;;26.65;19.23;;;;;;;;;;2618019;54;20014;-72
2021/10/16 12:30:35;;;;;;;31.52;18.10;;;;;;;;;;2618150;54;20026;-67
2021/10/16 12:33:02;;;;;;;25.42;18.08;;;;;;;;;;2618623;39;20129;-72
2021/10/16 12:35:28;;;;;;;24.67;18.20;;;;;;;;;;2617815;54;20529;-72
2021/10/16 12:37:58;;;;;;;27.85;19.17;;;;;;;;;;2617499;47;20026;-69
2021/10/16 12:40:36;;;;;;;26.02;18.33;;;;;;;;;;2617965;54;20025;-67
2021/10/16 12:43:03;;;;;;;26.35;18.17;;;;;;;;;;2617968;54;20049;-69
2021/10/16 12:45:37;;;;;;;22.98;16.92;;;;;;;;;;2618032;54;20034;-70
2021/10/16 12:48:18;;;;;;;27.85;18.30;;;;;;;;;;2617863;54;20015;-71
2021/10/16 12:50:54;;;;;;;27.35;18.77;;;;;;;;;;2618183;54;20006;-70
2021/10/16 12:53:20;;;;;;;23.67;18.70;;;;;;;;;;2618068;54;20042;-69
2021/10/16 12:55:50;;;;;;;23.70;17.27;;;;;;;;;;2617949;54;20025;-71